sensor_id;sensor_type;location;lat;lon;timestamp;temperature;humidity
21678;DHT22;11000;50.360;7.582;2024-03-22T00:00:27;11.30;99.90
21678;DHT22;11000;50.360;7.582;2024-03-22T00:02:47;11.30;99.90
21678;DHT22;11000;50.360;7.582;2024-03-22T00:05:08;11.30;99.90
21678;DHT22;11000;50.360;7.582;2024-03-22T00:07:28;11.30;99.90
21678;DHT22;11000;50.360;7.582;2024-03-22T00:09:49;11.30;99.90
21678;DHT22;11000;50.360;7.582;2024-03-22T00:12:10;11.20;99.90
21678;DHT22;11000;50.360;7.582;2024-03-22T00:14:30;11.20;99.90
21678;DHT22;11000;50.360;7.582;2024-03-22T00:16:51;11.20;99.90
21678;DHT22;11000;50.360;7.582;2024-03-22T00:19:11;11.20;99.90
21678;DHT22;11000;50.360;7.582;2024-03-22T00:21:32;11.20;99.90
21678;DHT22;11000;50.360;7.582;2024-03-22T00:23:52;11.20;99.90
21678;DHT22;11000;50.360;7.582;2024-03-22T00:26:13;11.20;99.90
21678;DHT22;11000;50.360;7.582;2024-03-22T00:28:33;11.10;99.90
21678;DHT22;11000;50.360;7.582;2024-03-22T00:30:54;11.10;99.90
21678;DHT22;11000;50.360;7.582;2024-03-22T00:33:14;11.00;99.90
21678;DHT22;11000;50.360;7.582;2024-03-22T00:35:34;10.90;99.90
21678;DHT22;11000;50.360;7.582;2024-03-22T00:37:55;11.00;99.90
21678;DHT22;11000;50.360;7.582;2024-03-22T00:40:16;10.90;99.90
21678;DHT22;11000;50.360;7.582;2024-03-22T00:42:36;10.80;99.90
21678;DHT22;11000;50.360;7.582;2024-03-22T00:44:57;10.70;99.90
21678;DHT22;11000;50.360;7.582;2024-03-22T00:47:18;10.60;99.90
21678;DHT22;11000;50.360;7.582;2024-03-22T00:49:38;10.60;99.90
21678;DHT22;11000;50.360;7.582;2024-03-22T00:51:59;10.60;99.90
21678;DHT22;11000;50.360;7.582;2024-03-22T00:54:19;10.60;99.90
21678;DHT22;11000;50.360;7.582;2024-03-22T00:56:40;10.60;99.90
21678;DHT22;11000;50.360;7.582;2024-03-22T00:59:00;10.60;99.90
21678;DHT22;11000;50.360;7.582;2024-03-22T01:01:21;10.60;99.90
21678;DHT22;11000;50.360;7.582;2024-03-22T01:03:41;10.60;99.90
21678;DHT22;11000;50.360;7.582;2024-03-22T01:06:02;10.70;99.90
21678;DHT22;11000;50.360;7.582;2024-03-22T01:08:22;10.70;99.90
21678;DHT22;11000;50.360;7.582;2024-03-22T01:10:43;10.70;99.90
21678;DHT22;11000;50.360;7.582;2024-03-22T01:13:03;10.60;99.90
21678;DHT22;11000;50.360;7.582;2024-03-22T01:15:24;10.60;99.90
21678;DHT22;11000;50.360;7.582;2024-03-22T01:17:44;10.50;99.90
21678;DHT22;11000;50.360;7.582;2024-03-22T01:20:05;10.50;99.90
21678;DHT22;11000;50.360;7.582;2024-03-22T01:22:26;10.50;99.90
21678;DHT22;11000;50.360;7.582;2024-03-22T01:24:46;10.50;99.90
21678;DHT22;11000;50.360;7.582;2024-03-22T01:27:07;10.40;99.90
21678;DHT22;11000;50.360;7.582;2024-03-22T01:29:27;10.40;99.90
21678;DHT22;11000;50.360;7.582;2024-03-22T01:31:51;10.40;99.90
21678;DHT22;11000;50.360;7.582;2024-03-22T01:34:11;10.30;99.90
21678;DHT22;11000;50.360;7.582;2024-03-22T01:36:32;10.30;99.90
21678;DHT22;11000;50.360;7.582;2024-03-22T01:38:52;10.40;99.90
21678;DHT22;11000;50.360;7.582;2024-03-22T01:41:13;10.40;99.90
21678;DHT22;11000;50.360;7.582;2024-03-22T01:43:33;10.40;99.90
21678;DHT22;11000;50.360;7.582;2024-03-22T01:45:54;10.30;99.90
21678;DHT22;11000;50.360;7.582;2024-03-22T01:48:15;10.40;99.90
21678;DHT22;11000;50.360;7.582;2024-03-22T01:50:35;10.40;99.90
21678;DHT22;11000;50.360;7.582;2024-03-22T01:52:56;10.40;99.90
21678;DHT22;11000;50.360;7.582;2024-03-22T01:55:17;10.40;99.90
21678;DHT22;11000;50.360;7.582;2024-03-22T01:57:38;10.30;99.90
21678;DHT22;11000;50.360;7.582;2024-03-22T01:59:59;10.20;99.90
21678;DHT22;11000;50.360;7.582;2024-03-22T02:02:20;10.10;99.90
21678;DHT22;11000;50.360;7.582;2024-03-22T02:04:41;10.10;99.90
21678;DHT22;11000;50.360;7.582;2024-03-22T02:07:01;10.10;99.90
21678;DHT22;11000;50.360;7.582;2024-03-22T02:09:22;10.10;99.90
21678;DHT22;11000;50.360;7.582;2024-03-22T02:11:42;10.10;99.90
21678;DHT22;11000;50.360;7.582;2024-03-22T02:14:03;10.10;99.90
21678;DHT22;11000;50.360;7.582;2024-03-22T02:16:24;10.00;99.90
21678;DHT22;11000;50.360;7.582;2024-03-22T02:18:44;10.10;99.90
21678;DHT22;11000;50.360;7.582;2024-03-22T02:21:05;10.10;99.90
21678;DHT22;11000;50.360;7.582;2024-03-22T02:23:43;10.00;99.90
21678;DHT22;11000;50.360;7.582;2024-03-22T02:26:04;10.00;99.90
21678;DHT22;11000;50.360;7.582;2024-03-22T02:28:25;9.90;99.90
21678;DHT22;11000;50.360;7.582;2024-03-22T02:30:46;9.90;99.90
21678;DHT22;11000;50.360;7.582;2024-03-22T02:33:06;9.90;99.90
21678;DHT22;11000;50.360;7.582;2024-03-22T02:35:27;9.90;99.90
21678;DHT22;11000;50.360;7.582;2024-03-22T02:37:47;9.80;99.90
21678;DHT22;11000;50.360;7.582;2024-03-22T02:40:08;9.70;99.90
21678;DHT22;11000;50.360;7.582;2024-03-22T02:42:29;9.70;99.90
21678;DHT22;11000;50.360;7.582;2024-03-22T02:44:49;9.70;99.90
21678;DHT22;11000;50.360;7.582;2024-03-22T02:47:10;9.70;99.90
21678;DHT22;11000;50.360;7.582;2024-03-22T02:49:31;9.70;99.90
21678;DHT22;11000;50.360;7.582;2024-03-22T02:51:51;9.80;99.90
21678;DHT22;11000;50.360;7.582;2024-03-22T02:54:12;9.80;99.90
21678;DHT22;11000;50.360;7.582;2024-03-22T02:56:32;9.70;99.90
21678;DHT22;11000;50.360;7.582;2024-03-22T02:58:53;9.70;99.90
21678;DHT22;11000;50.360;7.582;2024-03-22T03:01:13;9.80;99.90
21678;DHT22;11000;50.360;7.582;2024-03-22T03:03:34;9.70;99.90
21678;DHT22;11000;50.360;7.582;2024-03-22T03:05:54;9.80;99.90
21678;DHT22;11000;50.360;7.582;2024-03-22T03:08:16;9.70;99.90
21678;DHT22;11000;50.360;7.582;2024-03-22T03:10:36;9.60;99.90
21678;DHT22;11000;50.360;7.582;2024-03-22T03:12:57;9.60;99.90
21678;DHT22;11000;50.360;7.582;2024-03-22T03:15:17;9.60;99.90
21678;DHT22;11000;50.360;7.582;2024-03-22T03:17:38;9.60;99.90
21678;DHT22;11000;50.360;7.582;2024-03-22T03:19:58;9.60;99.90
21678;DHT22;11000;50.360;7.582;2024-03-22T03:22:19;9.70;99.90
21678;DHT22;11000;50.360;7.582;2024-03-22T03:24:40;9.60;99.90
21678;DHT22;11000;50.360;7.582;2024-03-22T03:27:00;9.60;99.90
21678;DHT22;11000;50.360;7.582;2024-03-22T03:29:20;9.60;99.90
21678;DHT22;11000;50.360;7.582;2024-03-22T03:31:41;9.60;99.90
21678;DHT22;11000;50.360;7.582;2024-03-22T03:34:01;9.60;99.90
21678;DHT22;11000;50.360;7.582;2024-03-22T03:36:22;9.50;99.90
21678;DHT22;11000;50.360;7.582;2024-03-22T03:38:42;9.50;99.90
21678;DHT22;11000;50.360;7.582;2024-03-22T03:41:03;9.50;99.90
21678;DHT22;11000;50.360;7.582;2024-03-22T03:43:24;9.50;99.90
21678;DHT22;11000;50.360;7.582;2024-03-22T03:45:44;9.50;99.90
21678;DHT22;11000;50.360;7.582;2024-03-22T03:48:05;9.50;99.90
21678;DHT22;11000;50.360;7.582;2024-03-22T03:50:26;9.50;99.90
21678;DHT22;11000;50.360;7.582;2024-03-22T03:52:46;9.50;99.90
21678;DHT22;11000;50.360;7.582;2024-03-22T03:55:07;9.60;99.90
21678;DHT22;11000;50.360;7.582;2024-03-22T03:57:27;9.50;99.90
21678;DHT22;11000;50.360;7.582;2024-03-22T03:59:48;9.60;99.90
21678;DHT22;11000;50.360;7.582;2024-03-22T04:02:08;9.60;99.90
21678;DHT22;11000;50.360;7.582;2024-03-22T04:04:29;9.60;99.90
21678;DHT22;11000;50.360;7.582;2024-03-22T04:06:49;9.60;99.90
21678;DHT22;11000;50.360;7.582;2024-03-22T04:09:09;9.60;99.90
21678;DHT22;11000;50.360;7.582;2024-03-22T04:11:30;9.60;99.90
21678;DHT22;11000;50.360;7.582;2024-03-22T04:13:50;9.60;99.90
21678;DHT22;11000;50.360;7.582;2024-03-22T04:16:11;9.60;99.90
21678;DHT22;11000;50.360;7.582;2024-03-22T04:18:31;9.50;99.90
21678;DHT22;11000;50.360;7.582;2024-03-22T04:20:56;9.50;99.90
21678;DHT22;11000;50.360;7.582;2024-03-22T04:23:16;9.60;99.90
21678;DHT22;11000;50.360;7.582;2024-03-22T04:25:37;9.60;99.90
21678;DHT22;11000;50.360;7.582;2024-03-22T04:27:57;9.50;99.90
21678;DHT22;11000;50.360;7.582;2024-03-22T04:30:18;9.60;99.90
21678;DHT22;11000;50.360;7.582;2024-03-22T04:32:38;9.50;99.90
21678;DHT22;11000;50.360;7.582;2024-03-22T04:34:59;9.60;99.90
21678;DHT22;11000;50.360;7.582;2024-03-22T04:37:19;9.60;99.90
21678;DHT22;11000;50.360;7.582;2024-03-22T04:39:40;9.60;99.90
21678;DHT22;11000;50.360;7.582;2024-03-22T04:42:01;9.60;99.90
21678;DHT22;11000;50.360;7.582;2024-03-22T04:44:22;9.60;99.90
21678;DHT22;11000;50.360;7.582;2024-03-22T04:46:42;9.60;99.90
21678;DHT22;11000;50.360;7.582;2024-03-22T04:49:03;9.50;99.90
21678;DHT22;11000;50.360;7.582;2024-03-22T04:51:23;9.60;99.90
21678;DHT22;11000;50.360;7.582;2024-03-22T04:53:44;9.50;99.90
21678;DHT22;11000;50.360;7.582;2024-03-22T04:56:05;9.50;99.90
21678;DHT22;11000;50.360;7.582;2024-03-22T04:58:25;9.60;99.90
21678;DHT22;11000;50.360;7.582;2024-03-22T05:00:47;9.60;99.90
21678;DHT22;11000;50.360;7.582;2024-03-22T05:03:07;9.60;99.90
21678;DHT22;11000;50.360;7.582;2024-03-22T05:05:28;9.60;99.90
21678;DHT22;11000;50.360;7.582;2024-03-22T05:07:49;9.60;99.90
21678;DHT22;11000;50.360;7.582;2024-03-22T05:10:09;9.60;99.90
21678;DHT22;11000;50.360;7.582;2024-03-22T05:12:30;9.60;99.90
21678;DHT22;11000;50.360;7.582;2024-03-22T05:14:51;9.70;99.90
21678;DHT22;11000;50.360;7.582;2024-03-22T05:17:11;9.70;99.90
21678;DHT22;11000;50.360;7.582;2024-03-22T05:19:32;9.60;99.90
21678;DHT22;11000;50.360;7.582;2024-03-22T05:21:52;9.60;99.90
21678;DHT22;11000;50.360;7.582;2024-03-22T05:24:12;9.70;99.90
21678;DHT22;11000;50.360;7.582;2024-03-22T05:26:33;9.70;99.90
21678;DHT22;11000;50.360;7.582;2024-03-22T05:28:56;9.70;99.90
21678;DHT22;11000;50.360;7.582;2024-03-22T05:31:17;9.60;99.90
21678;DHT22;11000;50.360;7.582;2024-03-22T05:33:37;9.70;99.90
21678;DHT22;11000;50.360;7.582;2024-03-22T05:35:58;9.70;99.90
21678;DHT22;11000;50.360;7.582;2024-03-22T05:38:19;9.70;99.90
21678;DHT22;11000;50.360;7.582;2024-03-22T05:40:39;9.70;99.90
21678;DHT22;11000;50.360;7.582;2024-03-22T05:43:00;9.70;99.90
21678;DHT22;11000;50.360;7.582;2024-03-22T05:45:20;9.70;99.90
21678;DHT22;11000;50.360;7.582;2024-03-22T05:47:41;9.80;99.90
21678;DHT22;11000;50.360;7.582;2024-03-22T05:50:01;9.90;99.90
21678;DHT22;11000;50.360;7.582;2024-03-22T05:52:22;9.90;99.90
21678;DHT22;11000;50.360;7.582;2024-03-22T05:54:43;9.90;99.90
21678;DHT22;11000;50.360;7.582;2024-03-22T05:57:04;10.00;99.90
21678;DHT22;11000;50.360;7.582;2024-03-22T05:59:28;10.10;99.90
21678;DHT22;11000;50.360;7.582;2024-03-22T06:01:48;10.20;99.90
21678;DHT22;11000;50.360;7.582;2024-03-22T06:04:09;10.20;99.90
21678;DHT22;11000;50.360;7.582;2024-03-22T06:06:29;10.30;99.90
21678;DHT22;11000;50.360;7.582;2024-03-22T06:08:50;10.40;99.90
21678;DHT22;11000;50.360;7.582;2024-03-22T06:11:12;10.50;99.90
21678;DHT22;11000;50.360;7.582;2024-03-22T06:13:33;10.50;99.90
21678;DHT22;11000;50.360;7.582;2024-03-22T06:15:55;10.60;99.90
21678;DHT22;11000;50.360;7.582;2024-03-22T06:18:15;10.60;99.90
21678;DHT22;11000;50.360;7.582;2024-03-22T06:20:36;10.60;99.90
21678;DHT22;11000;50.360;7.582;2024-03-22T06:22:57;10.60;99.90
21678;DHT22;11000;50.360;7.582;2024-03-22T06:25:17;10.70;99.90
21678;DHT22;11000;50.360;7.582;2024-03-22T06:27:38;10.70;99.90
21678;DHT22;11000;50.360;7.582;2024-03-22T06:29:58;10.80;99.90
21678;DHT22;11000;50.360;7.582;2024-03-22T06:32:18;10.80;99.90
21678;DHT22;11000;50.360;7.582;2024-03-22T06:34:39;10.70;99.90
21678;DHT22;11000;50.360;7.582;2024-03-22T06:37:00;10.70;99.90
21678;DHT22;11000;50.360;7.582;2024-03-22T06:39:20;10.80;99.90
21678;DHT22;11000;50.360;7.582;2024-03-22T06:41:40;10.80;99.90
21678;DHT22;11000;50.360;7.582;2024-03-22T06:44:01;10.80;99.90
21678;DHT22;11000;50.360;7.582;2024-03-22T06:46:22;10.90;99.90
21678;DHT22;11000;50.360;7.582;2024-03-22T06:48:43;11.00;99.90
21678;DHT22;11000;50.360;7.582;2024-03-22T06:51:03;11.10;99.90
21678;DHT22;11000;50.360;7.582;2024-03-22T06:53:24;11.20;99.90
21678;DHT22;11000;50.360;7.582;2024-03-22T06:55:45;11.30;99.90
21678;DHT22;11000;50.360;7.582;2024-03-22T06:58:05;11.40;99.90
21678;DHT22;11000;50.360;7.582;2024-03-22T07:00:26;11.40;99.90
21678;DHT22;11000;50.360;7.582;2024-03-22T07:02:46;11.50;99.90
21678;DHT22;11000;50.360;7.582;2024-03-22T07:05:07;11.70;99.90
21678;DHT22;11000;50.360;7.582;2024-03-22T07:07:28;11.80;99.90
21678;DHT22;11000;50.360;7.582;2024-03-22T07:09:48;11.80;99.90
21678;DHT22;11000;50.360;7.582;2024-03-22T07:12:09;12.00;99.90
21678;DHT22;11000;50.360;7.582;2024-03-22T07:14:29;12.00;99.90
21678;DHT22;11000;50.360;7.582;2024-03-22T07:16:50;12.00;99.90
21678;DHT22;11000;50.360;7.582;2024-03-22T07:19:11;11.90;99.90
21678;DHT22;11000;50.360;7.582;2024-03-22T07:21:32;11.90;99.90
21678;DHT22;11000;50.360;7.582;2024-03-22T07:23:52;12.00;99.90
21678;DHT22;11000;50.360;7.582;2024-03-22T07:26:13;12.10;99.90
21678;DHT22;11000;50.360;7.582;2024-03-22T07:28:33;12.10;99.90
21678;DHT22;11000;50.360;7.582;2024-03-22T07:30:54;12.20;99.90
21678;DHT22;11000;50.360;7.582;2024-03-22T07:33:15;12.20;99.90
21678;DHT22;11000;50.360;7.582;2024-03-22T07:35:38;12.30;99.90
21678;DHT22;11000;50.360;7.582;2024-03-22T07:37:58;12.30;99.90
21678;DHT22;11000;50.360;7.582;2024-03-22T07:40:18;12.30;99.90
21678;DHT22;11000;50.360;7.582;2024-03-22T07:42:40;12.40;99.90
21678;DHT22;11000;50.360;7.582;2024-03-22T07:45:00;12.40;99.90
21678;DHT22;11000;50.360;7.582;2024-03-22T07:47:21;12.50;99.90
21678;DHT22;11000;50.360;7.582;2024-03-22T07:49:42;12.50;99.90
21678;DHT22;11000;50.360;7.582;2024-03-22T07:52:02;12.50;99.90
21678;DHT22;11000;50.360;7.582;2024-03-22T07:54:23;12.50;99.90
21678;DHT22;11000;50.360;7.582;2024-03-22T07:56:43;12.60;99.90
21678;DHT22;11000;50.360;7.582;2024-03-22T07:59:04;12.70;99.90
21678;DHT22;11000;50.360;7.582;2024-03-22T08:01:25;12.80;99.90
21678;DHT22;11000;50.360;7.582;2024-03-22T08:03:45;12.80;99.90
21678;DHT22;11000;50.360;7.582;2024-03-22T08:06:06;13.00;99.90
21678;DHT22;11000;50.360;7.582;2024-03-22T08:08:26;13.10;99.90
21678;DHT22;11000;50.360;7.582;2024-03-22T08:10:47;13.10;99.90
21678;DHT22;11000;50.360;7.582;2024-03-22T08:13:07;13.30;99.90
21678;DHT22;11000;50.360;7.582;2024-03-22T08:15:28;13.40;99.90
21678;DHT22;11000;50.360;7.582;2024-03-22T08:17:49;13.50;99.90
21678;DHT22;11000;50.360;7.582;2024-03-22T08:20:09;13.60;99.90
21678;DHT22;11000;50.360;7.582;2024-03-22T08:22:30;13.80;99.90
21678;DHT22;11000;50.360;7.582;2024-03-22T08:24:50;13.90;99.90
21678;DHT22;11000;50.360;7.582;2024-03-22T08:27:11;13.90;99.90
21678;DHT22;11000;50.360;7.582;2024-03-22T08:29:31;14.10;99.90
21678;DHT22;11000;50.360;7.582;2024-03-22T08:31:52;14.30;99.90
21678;DHT22;11000;50.360;7.582;2024-03-22T08:34:13;14.40;99.90
21678;DHT22;11000;50.360;7.582;2024-03-22T08:36:34;14.60;99.90
21678;DHT22;11000;50.360;7.582;2024-03-22T08:38:54;14.70;99.90
21678;DHT22;11000;50.360;7.582;2024-03-22T08:41:15;14.90;99.90
21678;DHT22;11000;50.360;7.582;2024-03-22T08:43:35;15.10;99.90
21678;DHT22;11000;50.360;7.582;2024-03-22T08:45:56;15.00;99.90
21678;DHT22;11000;50.360;7.582;2024-03-22T08:48:17;15.10;99.90
21678;DHT22;11000;50.360;7.582;2024-03-22T08:50:38;15.00;99.90
21678;DHT22;11000;50.360;7.582;2024-03-22T08:52:58;15.00;99.90
21678;DHT22;11000;50.360;7.582;2024-03-22T08:55:18;15.00;99.90
21678;DHT22;11000;50.360;7.582;2024-03-22T08:57:39;15.00;99.90
21678;DHT22;11000;50.360;7.582;2024-03-22T08:59:59;15.10;99.90
21678;DHT22;11000;50.360;7.582;2024-03-22T09:02:20;15.10;99.90
21678;DHT22;11000;50.360;7.582;2024-03-22T09:04:41;15.10;99.90
21678;DHT22;11000;50.360;7.582;2024-03-22T09:07:02;15.20;99.90
21678;DHT22;11000;50.360;7.582;2024-03-22T09:09:22;15.30;99.90
21678;DHT22;11000;50.360;7.582;2024-03-22T09:11:43;15.30;99.90
21678;DHT22;11000;50.360;7.582;2024-03-22T09:14:03;15.40;99.90
21678;DHT22;11000;50.360;7.582;2024-03-22T09:16:24;15.50;99.90
21678;DHT22;11000;50.360;7.582;2024-03-22T09:18:44;15.60;99.90
21678;DHT22;11000;50.360;7.582;2024-03-22T09:21:05;15.80;99.90
21678;DHT22;11000;50.360;7.582;2024-03-22T09:23:26;16.00;99.90
21678;DHT22;11000;50.360;7.582;2024-03-22T09:25:47;16.20;99.90
21678;DHT22;11000;50.360;7.582;2024-03-22T09:28:08;16.30;99.90
21678;DHT22;11000;50.360;7.582;2024-03-22T09:30:28;16.30;99.90
21678;DHT22;11000;50.360;7.582;2024-03-22T09:32:49;16.30;99.90
21678;DHT22;11000;50.360;7.582;2024-03-22T09:35:09;16.30;99.90
21678;DHT22;11000;50.360;7.582;2024-03-22T09:37:30;16.30;99.90
21678;DHT22;11000;50.360;7.582;2024-03-22T09:39:51;16.30;99.90
21678;DHT22;11000;50.360;7.582;2024-03-22T09:42:16;16.30;99.90
21678;DHT22;11000;50.360;7.582;2024-03-22T09:44:37;16.50;99.90
21678;DHT22;11000;50.360;7.582;2024-03-22T09:47:00;16.60;99.90
21678;DHT22;11000;50.360;7.582;2024-03-22T09:49:21;16.70;99.90
21678;DHT22;11000;50.360;7.582;2024-03-22T09:51:44;16.70;99.90
21678;DHT22;11000;50.360;7.582;2024-03-22T09:54:05;16.70;99.90
21678;DHT22;11000;50.360;7.582;2024-03-22T09:56:26;16.80;99.90
21678;DHT22;11000;50.360;7.582;2024-03-22T09:58:47;16.90;99.90
21678;DHT22;11000;50.360;7.582;2024-03-22T10:01:08;16.80;99.90
21678;DHT22;11000;50.360;7.582;2024-03-22T10:03:28;16.80;99.90
21678;DHT22;11000;50.360;7.582;2024-03-22T10:05:49;16.90;99.90
21678;DHT22;11000;50.360;7.582;2024-03-22T10:08:10;16.90;99.90
21678;DHT22;11000;50.360;7.582;2024-03-22T10:10:32;17.00;99.90
21678;DHT22;11000;50.360;7.582;2024-03-22T10:12:52;16.90;99.90
21678;DHT22;11000;50.360;7.582;2024-03-22T10:15:15;16.90;99.90
21678;DHT22;11000;50.360;7.582;2024-03-22T10:17:37;16.80;99.90
21678;DHT22;11000;50.360;7.582;2024-03-22T10:19:58;16.90;99.90
21678;DHT22;11000;50.360;7.582;2024-03-22T10:22:18;16.90;99.90
21678;DHT22;11000;50.360;7.582;2024-03-22T10:24:39;17.00;99.90
21678;DHT22;11000;50.360;7.582;2024-03-22T10:27:00;17.10;99.90
21678;DHT22;11000;50.360;7.582;2024-03-22T10:29:21;17.30;99.90
21678;DHT22;11000;50.360;7.582;2024-03-22T10:31:43;17.30;99.90
21678;DHT22;11000;50.360;7.582;2024-03-22T10:34:03;17.40;99.90
21678;DHT22;11000;50.360;7.582;2024-03-22T10:36:27;17.50;99.90
21678;DHT22;11000;50.360;7.582;2024-03-22T10:38:49;17.60;99.90
21678;DHT22;11000;50.360;7.582;2024-03-22T10:41:11;17.50;99.90
21678;DHT22;11000;50.360;7.582;2024-03-22T10:43:32;17.60;99.90
21678;DHT22;11000;50.360;7.582;2024-03-22T10:45:56;17.70;99.90
21678;DHT22;11000;50.360;7.582;2024-03-22T10:48:17;17.70;99.90
21678;DHT22;11000;50.360;7.582;2024-03-22T10:50:41;17.80;99.90
21678;DHT22;11000;50.360;7.582;2024-03-22T10:53:07;17.80;99.90
21678;DHT22;11000;50.360;7.582;2024-03-22T10:55:34;17.70;99.90
21678;DHT22;11000;50.360;7.582;2024-03-22T10:57:56;17.60;99.90
21678;DHT22;11000;50.360;7.582;2024-03-22T11:00:27;17.60;99.90
21678;DHT22;11000;50.360;7.582;2024-03-22T11:02:47;17.60;99.90
21678;DHT22;11000;50.360;7.582;2024-03-22T11:05:18;17.60;99.90
21678;DHT22;11000;50.360;7.582;2024-03-22T11:07:39;17.60;99.90
21678;DHT22;11000;50.360;7.582;2024-03-22T11:10:02;17.60;99.90
21678;DHT22;11000;50.360;7.582;2024-03-22T11:12:27;17.60;99.90
21678;DHT22;11000;50.360;7.582;2024-03-22T11:14:48;17.60;99.90
21678;DHT22;11000;50.360;7.582;2024-03-22T11:17:10;17.60;99.90
21678;DHT22;11000;50.360;7.582;2024-03-22T11:19:31;17.50;99.90
21678;DHT22;11000;50.360;7.582;2024-03-22T11:21:52;17.50;99.90
21678;DHT22;11000;50.360;7.582;2024-03-22T11:24:15;17.40;99.90
21678;DHT22;11000;50.360;7.582;2024-03-22T11:26:36;17.30;99.90
21678;DHT22;11000;50.360;7.582;2024-03-22T11:28:56;17.30;99.90
21678;DHT22;11000;50.360;7.582;2024-03-22T11:31:17;17.30;99.90
21678;DHT22;11000;50.360;7.582;2024-03-22T11:33:37;17.30;99.90
21678;DHT22;11000;50.360;7.582;2024-03-22T11:35:59;17.30;99.90
21678;DHT22;11000;50.360;7.582;2024-03-22T11:38:20;17.40;99.90
21678;DHT22;11000;50.360;7.582;2024-03-22T11:40:40;17.50;99.90
21678;DHT22;11000;50.360;7.582;2024-03-22T11:43:02;17.40;99.90
21678;DHT22;11000;50.360;7.582;2024-03-22T11:45:23;17.50;99.90
21678;DHT22;11000;50.360;7.582;2024-03-22T11:47:46;17.50;99.90
21678;DHT22;11000;50.360;7.582;2024-03-22T11:50:07;17.60;99.90
21678;DHT22;11000;50.360;7.582;2024-03-22T11:52:29;17.70;99.90
21678;DHT22;11000;50.360;7.582;2024-03-22T11:54:52;17.80;99.90
21678;DHT22;11000;50.360;7.582;2024-03-22T11:57:13;17.80;99.90
21678;DHT22;11000;50.360;7.582;2024-03-22T11:59:33;17.90;99.90
21678;DHT22;11000;50.360;7.582;2024-03-22T12:01:54;17.90;99.90
21678;DHT22;11000;50.360;7.582;2024-03-22T12:04:15;17.90;99.90
21678;DHT22;11000;50.360;7.582;2024-03-22T12:06:35;18.00;99.90
21678;DHT22;11000;50.360;7.582;2024-03-22T12:08:56;18.00;99.90
21678;DHT22;11000;50.360;7.582;2024-03-22T12:11:16;18.00;99.90
21678;DHT22;11000;50.360;7.582;2024-03-22T12:13:38;17.90;99.90
21678;DHT22;11000;50.360;7.582;2024-03-22T12:15:58;17.90;99.90
21678;DHT22;11000;50.360;7.582;2024-03-22T12:18:19;17.80;99.90
21678;DHT22;11000;50.360;7.582;2024-03-22T12:20:39;17.90;99.90
21678;DHT22;11000;50.360;7.582;2024-03-22T12:23:00;17.90;99.90
21678;DHT22;11000;50.360;7.582;2024-03-22T12:25:20;17.90;99.90
21678;DHT22;11000;50.360;7.582;2024-03-22T12:27:41;17.90;99.90
21678;DHT22;11000;50.360;7.582;2024-03-22T12:30:02;17.90;99.90
21678;DHT22;11000;50.360;7.582;2024-03-22T12:32:23;17.90;99.90
21678;DHT22;11000;50.360;7.582;2024-03-22T12:34:43;17.90;99.90
21678;DHT22;11000;50.360;7.582;2024-03-22T12:37:04;17.80;99.90
21678;DHT22;11000;50.360;7.582;2024-03-22T12:39:24;17.80;99.90
21678;DHT22;11000;50.360;7.582;2024-03-22T12:41:45;17.80;99.90
21678;DHT22;11000;50.360;7.582;2024-03-22T12:44:05;17.60;99.90
21678;DHT22;11000;50.360;7.582;2024-03-22T12:46:26;17.60;99.90
21678;DHT22;11000;50.360;7.582;2024-03-22T12:48:47;17.70;99.90
21678;DHT22;11000;50.360;7.582;2024-03-22T12:51:08;17.60;99.90
21678;DHT22;11000;50.360;7.582;2024-03-22T12:53:29;17.60;99.90
21678;DHT22;11000;50.360;7.582;2024-03-22T12:55:49;17.50;99.90
21678;DHT22;11000;50.360;7.582;2024-03-22T12:58:09;17.40;99.90
21678;DHT22;11000;50.360;7.582;2024-03-22T13:00:30;17.40;99.90
21678;DHT22;11000;50.360;7.582;2024-03-22T13:02:51;17.40;99.90
21678;DHT22;11000;50.360;7.582;2024-03-22T13:05:12;17.40;99.90
21678;DHT22;11000;50.360;7.582;2024-03-22T13:07:33;17.40;99.90
21678;DHT22;11000;50.360;7.582;2024-03-22T13:09:54;17.30;99.90
21678;DHT22;11000;50.360;7.582;2024-03-22T13:12:15;17.30;99.90
21678;DHT22;11000;50.360;7.582;2024-03-22T13:14:36;17.30;99.90
21678;DHT22;11000;50.360;7.582;2024-03-22T13:16:56;17.30;99.90
21678;DHT22;11000;50.360;7.582;2024-03-22T13:19:17;17.20;99.90
21678;DHT22;11000;50.360;7.582;2024-03-22T13:21:39;17.30;99.90
21678;DHT22;11000;50.360;7.582;2024-03-22T13:23:59;17.30;99.90
21678;DHT22;11000;50.360;7.582;2024-03-22T13:26:20;17.30;99.90
21678;DHT22;11000;50.360;7.582;2024-03-22T13:28:40;17.30;99.90
21678;DHT22;11000;50.360;7.582;2024-03-22T13:31:04;17.30;99.90
21678;DHT22;11000;50.360;7.582;2024-03-22T13:33:27;17.10;99.90
21678;DHT22;11000;50.360;7.582;2024-03-22T13:35:48;17.20;99.90
21678;DHT22;11000;50.360;7.582;2024-03-22T13:38:09;17.30;99.90
21678;DHT22;11000;50.360;7.582;2024-03-22T13:40:33;17.40;99.90
21678;DHT22;11000;50.360;7.582;2024-03-22T13:42:54;17.40;99.90
21678;DHT22;11000;50.360;7.582;2024-03-22T13:45:14;17.40;99.90
21678;DHT22;11000;50.360;7.582;2024-03-22T13:47:35;17.40;99.90
21678;DHT22;11000;50.360;7.582;2024-03-22T13:49:57;17.40;99.90
21678;DHT22;11000;50.360;7.582;2024-03-22T13:52:18;17.30;99.90
21678;DHT22;11000;50.360;7.582;2024-03-22T13:54:38;17.30;99.90
21678;DHT22;11000;50.360;7.582;2024-03-22T13:56:59;17.20;99.90
21678;DHT22;11000;50.360;7.582;2024-03-22T13:59:20;17.30;99.90
21678;DHT22;11000;50.360;7.582;2024-03-22T14:01:41;17.70;99.90
21678;DHT22;11000;50.360;7.582;2024-03-22T14:04:05;18.10;99.90
21678;DHT22;11000;50.360;7.582;2024-03-22T14:06:26;18.50;99.90
21678;DHT22;11000;50.360;7.582;2024-03-22T14:08:46;18.60;99.90
21678;DHT22;11000;50.360;7.582;2024-03-22T14:11:07;18.50;99.90
21678;DHT22;11000;50.360;7.582;2024-03-22T14:13:27;18.40;99.90
21678;DHT22;11000;50.360;7.582;2024-03-22T14:15:48;18.30;99.90
21678;DHT22;11000;50.360;7.582;2024-03-22T14:18:08;18.40;99.90
21678;DHT22;11000;50.360;7.582;2024-03-22T14:20:29;18.70;99.90
21678;DHT22;11000;50.360;7.582;2024-03-22T14:22:51;18.70;99.90
21678;DHT22;11000;50.360;7.582;2024-03-22T14:25:11;18.50;99.90
21678;DHT22;11000;50.360;7.582;2024-03-22T14:27:32;18.50;99.90
21678;DHT22;11000;50.360;7.582;2024-03-22T14:29:53;18.40;99.90
21678;DHT22;11000;50.360;7.582;2024-03-22T14:32:13;18.30;99.90
21678;DHT22;11000;50.360;7.582;2024-03-22T14:34:34;18.40;99.90
21678;DHT22;11000;50.360;7.582;2024-03-22T14:36:54;18.60;99.90
21678;DHT22;11000;50.360;7.582;2024-03-22T14:39:15;18.70;99.90
21678;DHT22;11000;50.360;7.582;2024-03-22T14:41:35;18.80;99.90
21678;DHT22;11000;50.360;7.582;2024-03-22T14:43:56;19.00;99.90
21678;DHT22;11000;50.360;7.582;2024-03-22T14:46:17;19.00;99.30
21678;DHT22;11000;50.360;7.582;2024-03-22T14:48:40;19.00;99.30
21678;DHT22;11000;50.360;7.582;2024-03-22T14:51:01;19.00;99.20
21678;DHT22;11000;50.360;7.582;2024-03-22T14:53:21;19.00;98.90